北京 の空港の天気 - METARとTAF

北京首都国際空港 ( ZBAA / PEK ) - 中国 北京市
飛行場実況気象(Metar)
観測時間02/18 07:00 CST (02/17 23:00 UTC)
風向・風速北北東 2m/s
視程10km以上
天気現象
なし
気温-1℃
湿度26%
気圧1024hPa
METARZBAA 172300Z 02002MPS 330V050 CAVOK M01/M18 Q1024 NOSIG
過去の天気等 Google飛行場航空写真 Wunderground天気予報

過去48時間のMETAR

飛行場予報(TAF)
発表時間: 2/17 23:30 CST (2/17 15:30 UTC)
予報対象時間: 18日2時 CST ~ 19日2時 CST
風向・風速北北西 4m/s
視程3500m
天気現象もや
なし
TAF ZBAA 171530Z 1718/1818 34004MPS 3500 BR NSC TX03/1807Z TNM07/21Z